sensor_id;sensor_type;location;lat;lon;timestamp;pressure;altitude;pressure_sealevel;temperature;humidity
2401;BME280;1211;43.200;27.914;2023-04-25T00:01:15;100618.75;;;16.41;100.00
2401;BME280;1211;43.200;27.914;2023-04-25T00:03:41;100607.91;;;16.36;100.00
2401;BME280;1211;43.200;27.914;2023-04-25T00:06:08;100599.69;;;16.20;100.00
2401;BME280;1211;43.200;27.914;2023-04-25T00:08:34;100593.31;;;16.20;100.00
2401;BME280;1211;43.200;27.914;2023-04-25T00:11:01;100595.69;;;16.18;100.00
2401;BME280;1211;43.200;27.914;2023-04-25T00:13:30;100600.81;;;16.38;100.00
2401;BME280;1211;43.200;27.914;2023-04-25T00:15:56;100599.19;;;16.15;100.00
2401;BME280;1211;43.200;27.914;2023-04-25T00:18:23;100600.81;;;16.38;100.00
2401;BME280;1211;43.200;27.914;2023-04-25T00:20:49;100590.03;;;16.14;100.00
2401;BME280;1211;43.200;27.914;2023-04-25T00:23:16;100587.72;;;16.16;100.00
2401;BME280;1211;43.200;27.914;2023-04-25T00:25:43;100588.00;;;16.11;100.00
2401;BME280;1211;43.200;27.914;2023-04-25T00:28:10;100586.03;;;16.12;100.00
2401;BME280;1211;43.200;27.914;2023-04-25T00:30:39;100573.19;;;16.26;100.00
2401;BME280;1211;43.200;27.914;2023-04-25T00:33:05;100574.69;;;16.20;100.00
2401;BME280;1211;43.200;27.914;2023-04-25T00:35:32;100570.03;;;16.05;100.00
2401;BME280;1211;43.200;27.914;2023-04-25T00:37:59;100566.75;;;15.99;100.00
2401;BME280;1211;43.200;27.914;2023-04-25T00:40:26;100567.56;;;16.00;100.00
2401;BME280;1211;43.200;27.914;2023-04-25T00:42:53;100563.63;;;16.01;100.00
2401;BME280;1211;43.200;27.914;2023-04-25T00:45:20;100565.47;;;16.16;100.00
2401;BME280;1211;43.200;27.914;2023-04-25T00:47:48;100563.00;;;16.11;100.00
2401;BME280;1211;43.200;27.914;2023-04-25T00:50:15;100562.44;;;16.02;100.00
2401;BME280;1211;43.200;27.914;2023-04-25T00:52:42;100568.75;;;16.22;100.00
2401;BME280;1211;43.200;27.914;2023-04-25T00:55:10;100559.78;;;16.09;100.00
2401;BME280;1211;43.200;27.914;2023-04-25T00:57:37;100561.03;;;16.12;100.00
2401;BME280;1211;43.200;27.914;2023-04-25T01:00:04;100545.03;;;16.28;100.00
2401;BME280;1211;43.200;27.914;2023-04-25T01:02:31;100557.59;;;16.18;100.00
2401;BME280;1211;43.200;27.914;2023-04-25T01:04:59;100544.88;;;16.17;100.00
2401;BME280;1211;43.200;27.914;2023-04-25T01:07:26;100538.69;;;16.27;100.00
2401;BME280;1211;43.200;27.914;2023-04-25T01:09:53;100545.22;;;16.38;100.00
2401;BME280;1211;43.200;27.914;2023-04-25T01:12:20;100542.94;;;16.44;100.00
2401;BME280;1211;43.200;27.914;2023-04-25T01:14:47;100534.84;;;16.35;100.00
2401;BME280;1211;43.200;27.914;2023-04-25T01:17:13;100538.81;;;16.34;100.00
2401;BME280;1211;43.200;27.914;2023-04-25T01:19:41;100529.91;;;16.25;100.00
2401;BME280;1211;43.200;27.914;2023-04-25T01:22:09;100534.72;;;16.28;100.00
2401;BME280;1211;43.200;27.914;2023-04-25T01:24:36;100523.34;;;16.14;100.00
2401;BME280;1211;43.200;27.914;2023-04-25T01:27:03;100524.09;;;16.11;100.00
2401;BME280;1211;43.200;27.914;2023-04-25T01:29:32;100528.00;;;16.06;100.00
2401;BME280;1211;43.200;27.914;2023-04-25T01:31:59;100529.03;;;15.98;100.00
2401;BME280;1211;43.200;27.914;2023-04-25T01:34:26;100512.25;;;16.14;100.00
2401;BME280;1211;43.200;27.914;2023-04-25T01:36:52;100517.38;;;16.35;100.00
2401;BME280;1211;43.200;27.914;2023-04-25T01:39:23;100510.63;;;16.13;100.00
2401;BME280;1211;43.200;27.914;2023-04-25T01:41:50;100513.91;;;16.19;100.00
2401;BME280;1211;43.200;27.914;2023-04-25T01:44:16;100514.38;;;16.01;100.00
2401;BME280;1211;43.200;27.914;2023-04-25T01:46:43;100507.84;;;16.13;100.00
2401;BME280;1211;43.200;27.914;2023-04-25T01:49:10;100511.03;;;16.12;100.00
2401;BME280;1211;43.200;27.914;2023-04-25T01:51:36;100506.81;;;16.21;100.00
2401;BME280;1211;43.200;27.914;2023-04-25T01:54:03;100490.91;;;16.18;100.00
2401;BME280;1211;43.200;27.914;2023-04-25T01:56:31;100495.44;;;16.07;100.00
2401;BME280;1211;43.200;27.914;2023-04-25T01:58:59;100489.16;;;16.10;100.00
2401;BME280;1211;43.200;27.914;2023-04-25T02:01:26;100492.25;;;16.28;100.00
2401;BME280;1211;43.200;27.914;2023-04-25T02:03:52;100485.34;;;16.18;100.00
2401;BME280;1211;43.200;27.914;2023-04-25T02:06:19;100485.69;;;16.17;100.00
2401;BME280;1211;43.200;27.914;2023-04-25T02:08:45;100481.75;;;16.18;100.00
2401;BME280;1211;43.200;27.914;2023-04-25T02:11:12;100472.03;;;16.08;100.00
2401;BME280;1211;43.200;27.914;2023-04-25T02:13:40;100477.41;;;16.20;100.00
2401;BME280;1211;43.200;27.914;2023-04-25T02:16:07;100479.66;;;16.11;100.00
2401;BME280;1211;43.200;27.914;2023-04-25T02:18:33;100477.38;;;16.43;100.00
2401;BME280;1211;43.200;27.914;2023-04-25T02:21:02;100485.31;;;16.41;100.00
2401;BME280;1211;43.200;27.914;2023-04-25T02:23:29;100472.94;;;16.38;100.00
2401;BME280;1211;43.200;27.914;2023-04-25T02:25:56;100467.50;;;16.45;100.00
2401;BME280;1211;43.200;27.914;2023-04-25T02:28:23;100466.22;;;16.39;100.00
2401;BME280;1211;43.200;27.914;2023-04-25T02:30:51;100456.22;;;16.35;100.00
2401;BME280;1211;43.200;27.914;2023-04-25T02:33:17;100460.53;;;16.32;100.00
2401;BME280;1211;43.200;27.914;2023-04-25T02:35:46;100452.31;;;16.39;100.00
2401;BME280;1211;43.200;27.914;2023-04-25T02:38:12;100446.53;;;16.25;100.00
2401;BME280;1211;43.200;27.914;2023-04-25T02:40:39;100442.03;;;16.17;100.00
2401;BME280;1211;43.200;27.914;2023-04-25T02:43:06;100446.69;;;16.36;100.00
2401;BME280;1211;43.200;27.914;2023-04-25T02:45:33;100447.16;;;16.15;100.00
2401;BME280;1211;43.200;27.914;2023-04-25T02:48:01;100438.47;;;16.17;100.00
2401;BME280;1211;43.200;27.914;2023-04-25T02:50:28;100443.53;;;16.37;100.00
2401;BME280;1211;43.200;27.914;2023-04-25T02:52:55;100434.34;;;16.33;100.00
2401;BME280;1211;43.200;27.914;2023-04-25T02:55:21;100431.41;;;16.23;100.00
2401;BME280;1211;43.200;27.914;2023-04-25T02:57:48;100434.25;;;16.26;100.00
2401;BME280;1211;43.200;27.914;2023-04-25T03:00:15;100433.78;;;16.24;100.00
2401;BME280;1211;43.200;27.914;2023-04-25T03:02:42;100431.72;;;16.18;100.00
2401;BME280;1211;43.200;27.914;2023-04-25T03:05:10;100426.28;;;16.02;100.00
2401;BME280;1211;43.200;27.914;2023-04-25T03:07:36;100424.00;;;16.07;100.00
2401;BME280;1211;43.200;27.914;2023-04-25T03:10:05;100425.06;;;16.22;100.00
2401;BME280;1211;43.200;27.914;2023-04-25T03:12:31;100433.63;;;16.14;100.00
2401;BME280;1211;43.200;27.914;2023-04-25T03:14:58;100421.78;;;16.17;100.00
2401;BME280;1211;43.200;27.914;2023-04-25T03:17:25;100418.28;;;15.97;100.00
2401;BME280;1211;43.200;27.914;2023-04-25T03:19:51;100425.25;;;16.10;100.00
2401;BME280;1211;43.200;27.914;2023-04-25T03:22:19;100422.22;;;15.96;100.00
2401;BME280;1211;43.200;27.914;2023-04-25T03:24:46;100414.94;;;16.11;100.00
2401;BME280;1211;43.200;27.914;2023-04-25T03:27:13;100419.16;;;16.01;100.00
2401;BME280;1211;43.200;27.914;2023-04-25T03:29:40;100414.47;;;16.05;100.00
2401;BME280;1211;43.200;27.914;2023-04-25T03:32:07;100416.44;;;15.82;100.00
2401;BME280;1211;43.200;27.914;2023-04-25T03:34:33;100414.53;;;15.86;100.00
2401;BME280;1211;43.200;27.914;2023-04-25T03:37:00;100414.06;;;15.84;100.00
2401;BME280;1211;43.200;27.914;2023-04-25T03:39:28;100416.44;;;15.82;100.00
2401;BME280;1211;43.200;27.914;2023-04-25T03:41:55;100414.84;;;15.81;100.00
2401;BME280;1211;43.200;27.914;2023-04-25T03:44:21;100403.47;;;15.66;100.00
2401;BME280;1211;43.200;27.914;2023-04-25T03:46:49;100398.31;;;15.88;100.00
2401;BME280;1211;43.200;27.914;2023-04-25T03:49:16;100398.19;;;15.81;100.00
2401;BME280;1211;43.200;27.914;2023-04-25T03:51:42;100406.31;;;15.70;100.00
2401;BME280;1211;43.200;27.914;2023-04-25T03:54:09;100407.34;;;15.85;100.00
2401;BME280;1211;43.200;27.914;2023-04-25T03:56:37;100405.56;;;15.96;100.00
2401;BME280;1211;43.200;27.914;2023-04-25T03:59:04;100401.97;;;15.95;100.00
2401;BME280;1211;43.200;27.914;2023-04-25T04:01:30;100403.22;;;15.98;100.00
2401;BME280;1211;43.200;27.914;2023-04-25T04:03:57;100409.03;;;16.12;100.00
2401;BME280;1211;43.200;27.914;2023-04-25T04:06:24;100400.25;;;16.10;100.00
2401;BME280;1211;43.200;27.914;2023-04-25T04:08:50;100403.34;;;16.58;100.00
2401;BME280;1211;43.200;27.914;2023-04-25T04:11:17;100404.94;;;16.32;100.00
2401;BME280;1211;43.200;27.914;2023-04-25T04:13:45;100394.53;;;16.52;100.00
2401;BME280;1211;43.200;27.914;2023-04-25T04:16:12;100403.56;;;16.19;100.00
2401;BME280;1211;43.200;27.914;2023-04-25T04:18:38;100396.84;;;16.46;100.00
2401;BME280;1211;43.200;27.914;2023-04-25T04:21:05;100394.03;;;16.73;100.00
2401;BME280;1211;43.200;27.914;2023-04-25T04:23:32;100389.78;;;16.82;100.00
2401;BME280;1211;43.200;27.914;2023-04-25T04:25:59;100396.84;;;16.76;100.00
2401;BME280;1211;43.200;27.914;2023-04-25T04:28:26;100395.75;;;17.14;100.00
2401;BME280;1211;43.200;27.914;2023-04-25T04:30:54;100403.97;;;17.04;100.00
2401;BME280;1211;43.200;27.914;2023-04-25T04:33:21;100395.34;;;16.82;100.00
2401;BME280;1211;43.200;27.914;2023-04-25T04:35:48;100395.69;;;16.77;100.00
2401;BME280;1211;43.200;27.914;2023-04-25T04:38:17;100395.31;;;17.12;100.00
2401;BME280;1211;43.200;27.914;2023-04-25T04:40:44;100400.28;;;16.96;100.00
2401;BME280;1211;43.200;27.914;2023-04-25T04:43:11;100396.44;;;17.04;100.00
2401;BME280;1211;43.200;27.914;2023-04-25T04:45:38;100394.91;;;17.10;100.00
2401;BME280;1211;43.200;27.914;2023-04-25T04:48:06;100389.00;;;17.15;100.00
2401;BME280;1211;43.200;27.914;2023-04-25T04:50:33;100395.63;;;17.41;100.00
2401;BME280;1211;43.200;27.914;2023-04-25T04:53:01;100390.28;;;17.21;100.00
2401;BME280;1211;43.200;27.914;2023-04-25T04:55:28;100388.78;;;17.35;100.00
2401;BME280;1211;43.200;27.914;2023-04-25T04:57:54;100391.53;;;17.27;100.00
2401;BME280;1211;43.200;27.914;2023-04-25T05:00:21;100385.63;;;17.33;100.00
2401;BME280;1211;43.200;27.914;2023-04-25T05:02:48;100395.69;;;17.44;100.00
2401;BME280;1211;43.200;27.914;2023-04-25T05:05:16;100388.69;;;17.24;100.00
2401;BME280;1211;43.200;27.914;2023-04-25T05:07:43;100387.69;;;17.06;100.00
2401;BME280;1211;43.200;27.914;2023-04-25T05:10:09;100381.31;;;17.39;100.00
2401;BME280;1211;43.200;27.914;2023-04-25T05:12:36;100388.97;;;17.89;100.00
2401;BME280;1211;43.200;27.914;2023-04-25T05:15:03;100379.56;;;18.70;100.00
2401;BME280;1211;43.200;27.914;2023-04-25T05:17:30;100394.81;;;18.25;100.00
2401;BME280;1211;43.200;27.914;2023-04-25T05:19:57;100387.94;;;18.70;100.00
2401;BME280;1211;43.200;27.914;2023-04-25T05:22:25;100388.44;;;18.97;100.00
2401;BME280;1211;43.200;27.914;2023-04-25T05:24:52;100383.78;;;19.32;100.00
2401;BME280;1211;43.200;27.914;2023-04-25T05:27:19;100380.66;;;19.55;100.00
2401;BME280;1211;43.200;27.914;2023-04-25T05:29:46;100376.25;;;19.47;100.00
2401;BME280;1211;43.200;27.914;2023-04-25T05:32:12;100381.47;;;19.77;100.00
2401;BME280;1211;43.200;27.914;2023-04-25T05:34:39;100375.09;;;19.52;100.00
2401;BME280;1211;43.200;27.914;2023-04-25T05:37:06;100384.25;;;20.23;100.00
2401;BME280;1211;43.200;27.914;2023-04-25T05:39:35;100373.09;;;19.95;100.00
2401;BME280;1211;43.200;27.914;2023-04-25T05:42:01;100375.78;;;19.24;100.00
2401;BME280;1211;43.200;27.914;2023-04-25T05:44:29;100374.63;;;19.39;100.00
2401;BME280;1211;43.200;27.914;2023-04-25T05:46:55;100376.72;;;18.59;100.00
2401;BME280;1211;43.200;27.914;2023-04-25T05:49:22;100360.88;;;18.81;100.00
2401;BME280;1211;43.200;27.914;2023-04-25T05:51:49;100362.53;;;18.92;100.00
2401;BME280;1211;43.200;27.914;2023-04-25T05:54:15;100364.03;;;18.72;100.00
2401;BME280;1211;43.200;27.914;2023-04-25T05:56:44;100359.56;;;18.57;100.00
2401;BME280;1211;43.200;27.914;2023-04-25T05:59:10;100362.09;;;18.87;100.00
2401;BME280;1211;43.200;27.914;2023-04-25T06:01:37;100356.06;;;18.71;100.00
2401;BME280;1211;43.200;27.914;2023-04-25T06:04:03;100358.97;;;19.03;100.00
2401;BME280;1211;43.200;27.914;2023-04-25T06:06:30;100356.03;;;18.67;100.00
2401;BME280;1211;43.200;27.914;2023-04-25T06:08:57;100356.72;;;18.50;100.00
2401;BME280;1211;43.200;27.914;2023-04-25T06:11:24;100358.06;;;18.70;100.00
2401;BME280;1211;43.200;27.914;2023-04-25T06:13:52;100359.00;;;18.34;100.00
2401;BME280;1211;43.200;27.914;2023-04-25T06:16:19;100348.47;;;18.64;100.00
2401;BME280;1211;43.200;27.914;2023-04-25T06:18:45;100348.16;;;18.90;100.00
2401;BME280;1211;43.200;27.914;2023-04-25T06:21:12;100356.81;;;18.64;100.00
2401;BME280;1211;43.200;27.914;2023-04-25T06:23:39;100346.19;;;18.26;100.00
2401;BME280;1211;43.200;27.914;2023-04-25T06:26:05;100349.25;;;18.03;100.00
2401;BME280;1211;43.200;27.914;2023-04-25T06:28:32;100346.19;;;18.95;100.00
2401;BME280;1211;43.200;27.914;2023-04-25T06:31:00;100353.66;;;18.69;100.00
2401;BME280;1211;43.200;27.914;2023-04-25T06:33:27;100352.44;;;18.67;100.00
2401;BME280;1211;43.200;27.914;2023-04-25T06:35:54;100331.84;;;19.07;100.00
2401;BME280;1211;43.200;27.914;2023-04-25T06:38:20;100348.19;;;18.98;100.00
2401;BME280;1211;43.200;27.914;2023-04-25T06:40:47;100332.22;;;18.87;100.00
2401;BME280;1211;43.200;27.914;2023-04-25T06:43:14;100338.22;;;18.93;100.00
2401;BME280;1211;43.200;27.914;2023-04-25T06:45:40;100326.56;;;18.70;100.00
2401;BME280;1211;43.200;27.914;2023-04-25T06:48:08;100325.59;;;18.44;100.00
2401;BME280;1211;43.200;27.914;2023-04-25T06:50:35;100321.53;;;18.28;100.00
2401;BME280;1211;43.200;27.914;2023-04-25T06:53:02;100324.16;;;18.72;100.00
2401;BME280;1211;43.200;27.914;2023-04-25T06:55:28;100337.16;;;19.97;100.00
2401;BME280;1211;43.200;27.914;2023-04-25T06:57:55;100342.34;;;20.09;100.00
2401;BME280;1211;43.200;27.914;2023-04-25T07:00:22;100343.13;;;20.20;100.00
2401;BME280;1211;43.200;27.914;2023-04-25T07:02:48;100353.16;;;21.29;100.00
2401;BME280;1211;43.200;27.914;2023-04-25T07:05:16;100337.44;;;21.43;100.00
2401;BME280;1211;43.200;27.914;2023-04-25T07:07:43;100324.53;;;20.90;100.00
2401;BME280;1211;43.200;27.914;2023-04-25T07:10:10;100328.38;;;21.24;100.00
2401;BME280;1211;43.200;27.914;2023-04-25T07:12:36;100340.00;;;21.19;100.00
2401;BME280;1211;43.200;27.914;2023-04-25T07:15:03;100334.47;;;20.98;100.00
2401;BME280;1211;43.200;27.914;2023-04-25T07:17:31;100332.38;;;21.23;100.00
2401;BME280;1211;43.200;27.914;2023-04-25T07:19:58;100326.31;;;21.28;100.00
2401;BME280;1211;43.200;27.914;2023-04-25T07:22:27;100320.88;;;22.10;96.99
2401;BME280;1211;43.200;27.914;2023-04-25T07:24:53;100323.13;;;21.78;95.72
2401;BME280;1211;43.200;27.914;2023-04-25T07:27:20;100317.97;;;21.73;95.49
2401;BME280;1211;43.200;27.914;2023-04-25T07:29:47;100310.72;;;21.79;92.44
2401;BME280;1211;43.200;27.914;2023-04-25T07:32:13;100320.22;;;21.96;91.74
2401;BME280;1211;43.200;27.914;2023-04-25T07:34:40;100315.31;;;21.55;93.41
2401;BME280;1211;43.200;27.914;2023-04-25T07:37:06;100311.31;;;20.94;96.06
2401;BME280;1211;43.200;27.914;2023-04-25T07:39:35;100309.34;;;21.50;95.49
2401;BME280;1211;43.200;27.914;2023-04-25T07:42:02;100306.19;;;21.44;95.85
2401;BME280;1211;43.200;27.914;2023-04-25T07:44:28;100305.44;;;22.29;92.40
2401;BME280;1211;43.200;27.914;2023-04-25T07:46:56;100309.97;;;21.75;93.44
2401;BME280;1211;43.200;27.914;2023-04-25T07:49:22;100300.72;;;22.23;92.26
2401;BME280;1211;43.200;27.914;2023-04-25T07:51:49;100302.75;;;22.18;92.25
2401;BME280;1211;43.200;27.914;2023-04-25T07:54:16;100293.97;;;22.50;91.30
2401;BME280;1211;43.200;27.914;2023-04-25T07:56:44;100299.31;;;22.00;89.89
2401;BME280;1211;43.200;27.914;2023-04-25T07:59:11;100294.72;;;21.28;93.81
2401;BME280;1211;43.200;27.914;2023-04-25T08:01:38;100298.00;;;19.93;100.00
2401;BME280;1211;43.200;27.914;2023-04-25T08:04:05;100301.94;;;20.35;100.00
2401;BME280;1211;43.200;27.914;2023-04-25T08:06:31;100296.66;;;20.58;100.00
2401;BME280;1211;43.200;27.914;2023-04-25T08:08:58;100301.25;;;19.56;100.00
2401;BME280;1211;43.200;27.914;2023-04-25T08:11:25;100300.44;;;19.45;100.00
2401;BME280;1211;43.200;27.914;2023-04-25T08:13:53;100294.00;;;19.27;100.00
2401;BME280;1211;43.200;27.914;2023-04-25T08:16:19;100303.56;;;19.19;100.00
2401;BME280;1211;43.200;27.914;2023-04-25T08:18:46;100305.19;;;19.27;100.00
2401;BME280;1211;43.200;27.914;2023-04-25T08:21:13;100322.69;;;19.10;100.00
2401;BME280;1211;43.200;27.914;2023-04-25T08:23:40;100328.28;;;19.13;100.00
2401;BME280;1211;43.200;27.914;2023-04-25T08:26:07;100321.75;;;18.60;100.00
2401;BME280;1211;43.200;27.914;2023-04-25T08:28:33;100326.91;;;18.61;100.00
2401;BME280;1211;43.200;27.914;2023-04-25T08:31:02;100316.31;;;19.09;100.00
2401;BME280;1211;43.200;27.914;2023-04-25T08:33:28;100309.16;;;19.19;100.00
2401;BME280;1211;43.200;27.914;2023-04-25T08:35:55;100306.25;;;18.83;100.00
2401;BME280;1211;43.200;27.914;2023-04-25T08:38:22;100307.13;;;19.09;100.00
2401;BME280;1211;43.200;27.914;2023-04-25T08:40:49;100306.38;;;19.33;100.00
2401;BME280;1211;43.200;27.914;2023-04-25T08:43:17;100316.34;;;19.41;100.00
2401;BME280;1211;43.200;27.914;2023-04-25T08:45:44;100309.16;;;19.22;100.00
2401;BME280;1211;43.200;27.914;2023-04-25T08:48:14;100305.13;;;19.02;100.00
2401;BME280;1211;43.200;27.914;2023-04-25T08:50:43;100303.53;;;19.01;100.00
2401;BME280;1211;43.200;27.914;2023-04-25T08:53:12;100308.38;;;19.93;100.00
2401;BME280;1211;43.200;27.914;2023-04-25T08:55:43;100312.81;;;19.58;100.00
2401;BME280;1211;43.200;27.914;2023-04-25T08:58:10;100303.63;;;19.54;100.00
2401;BME280;1211;43.200;27.914;2023-04-25T09:00:37;100316.41;;;19.69;100.00
2401;BME280;1211;43.200;27.914;2023-04-25T09:03:04;100306.81;;;19.49;100.00
2401;BME280;1211;43.200;27.914;2023-04-25T09:05:32;100314.00;;;19.64;100.00
2401;BME280;1211;43.200;27.914;2023-04-25T09:07:59;100316.41;;;19.69;100.00
2401;BME280;1211;43.200;27.914;2023-04-25T09:10:26;100313.16;;;19.32;100.00
2401;BME280;1211;43.200;27.914;2023-04-25T09:13:03;100310.81;;;19.77;100.00
2401;BME280;1211;43.200;27.914;2023-04-25T09:15:31;100315.19;;;19.70;100.00
2401;BME280;1211;43.200;27.914;2023-04-25T09:17:58;100304.81;;;19.71;100.00
2401;BME280;1211;43.200;27.914;2023-04-25T09:20:25;100308.81;;;19.98;100.00
2401;BME280;1211;43.200;27.914;2023-04-25T09:23:02;100296.38;;;19.11;100.00
2401;BME280;1211;43.200;27.914;2023-04-25T09:25:28;100287.97;;;18.93;100.00
2401;BME280;1211;43.200;27.914;2023-04-25T09:28:00;100295.19;;;19.12;100.00
2401;BME280;1211;43.200;27.914;2023-04-25T09:30:30;100286.00;;;19.18;100.00
2401;BME280;1211;43.200;27.914;2023-04-25T09:32:57;100288.03;;;19.39;100.00
2401;BME280;1211;43.200;27.914;2023-04-25T09:35:24;100285.25;;;19.82;100.00
2401;BME280;1211;43.200;27.914;2023-04-25T09:37:51;100278.00;;;20.16;100.00
2401;BME280;1211;43.200;27.914;2023-04-25T09:40:19;100281.16;;;20.22;99.66
2401;BME280;1211;43.200;27.914;2023-04-25T09:42:46;100284.47;;;19.70;100.00
2401;BME280;1211;43.200;27.914;2023-04-25T09:45:13;100276.47;;;19.87;100.00
2401;BME280;1211;43.200;27.914;2023-04-25T09:47:40;100277.22;;;20.12;98.83
2401;BME280;1211;43.200;27.914;2023-04-25T09:50:13;100272.00;;;20.10;98.48
2401;BME280;1211;43.200;27.914;2023-04-25T09:52:40;100270.63;;;20.72;96.90
2401;BME280;1211;43.200;27.914;2023-04-25T09:55:07;100263.34;;;20.85;94.80
2401;BME280;1211;43.200;27.914;2023-04-25T09:57:35;100270.59;;;20.79;94.53
2401;BME280;1211;43.200;27.914;2023-04-25T10:00:05;100267.41;;;20.77;94.63
2401;BME280;1211;43.200;27.914;2023-04-25T10:02:37;100258.19;;;21.42;91.71
2401;BME280;1211;43.200;27.914;2023-04-25T10:05:05;100261.16;;;21.14;92.71
2401;BME280;1211;43.200;27.914;2023-04-25T10:07:32;100248.63;;;21.32;91.11
2401;BME280;1211;43.200;27.914;2023-04-25T10:10:00;100249.47;;;21.74;90.35
2401;BME280;1211;43.200;27.914;2023-04-25T10:12:28;100244.13;;;22.28;87.55
2401;BME280;1211;43.200;27.914;2023-04-25T10:14:57;100242.34;;;22.71;85.10
2401;BME280;1211;43.200;27.914;2023-04-25T10:17:24;100241.41;;;22.85;83.62
2401;BME280;1211;43.200;27.914;2023-04-25T10:19:52;100240.75;;;22.74;81.93
2401;BME280;1211;43.200;27.914;2023-04-25T10:22:20;100236.44;;;22.92;80.45
2401;BME280;1211;43.200;27.914;2023-04-25T10:24:49;100234.16;;;23.37;79.56
2401;BME280;1211;43.200;27.914;2023-04-25T10:27:17;100228.47;;;23.88;77.42
2401;BME280;1211;43.200;27.914;2023-04-25T10:29:44;100223.09;;;24.56;75.16
2401;BME280;1211;43.200;27.914;2023-04-25T10:32:12;100225.41;;;24.97;73.43
2401;BME280;1211;43.200;27.914;2023-04-25T10:34:40;100218.09;;;24.99;72.61
2401;BME280;1211;43.200;27.914;2023-04-25T10:37:10;100219.88;;;24.93;71.79
2401;BME280;1211;43.200;27.914;2023-04-25T10:39:38;100215.56;;;24.69;72.44
2401;BME280;1211;43.200;27.914;2023-04-25T10:42:04;100221.38;;;24.98;72.53
2401;BME280;1211;43.200;27.914;2023-04-25T10:44:32;100213.63;;;25.18;71.51
2401;BME280;1211;43.200;27.914;2023-04-25T10:47:00;100212.34;;;24.31;74.06
2401;BME280;1211;43.200;27.914;2023-04-25T10:49:30;100218.03;;;23.88;74.86
2401;BME280;1211;43.200;27.914;2023-04-25T10:52:16;100210.56;;;23.08;78.08
2401;BME280;1211;43.200;27.914;2023-04-25T10:54:47;100201.47;;;22.06;83.74
2401;BME280;1211;43.200;27.914;2023-04-25T10:57:26;100203.25;;;22.27;85.80
2401;BME280;1211;43.200;27.914;2023-04-25T10:59:54;100203.13;;;22.03;85.15
2401;BME280;1211;43.200;27.914;2023-04-25T11:02:20;100195.22;;;21.91;86.59
2401;BME280;1211;43.200;27.914;2023-04-25T11:04:49;100196.44;;;21.53;90.53
2401;BME280;1211;43.200;27.914;2023-04-25T11:07:19;100206.75;;;22.04;89.40
2401;BME280;1211;43.200;27.914;2023-04-25T11:09:50;100206.72;;;22.38;88.18
2401;BME280;1211;43.200;27.914;2023-04-25T11:12:16;100212.19;;;23.06;85.41
2401;BME280;1211;43.200;27.914;2023-04-25T11:14:43;100205.75;;;23.05;83.96
2401;BME280;1211;43.200;27.914;2023-04-25T11:17:10;100213.72;;;23.60;82.29
2401;BME280;1211;43.200;27.914;2023-04-25T11:19:37;100214.44;;;23.64;79.30
2401;BME280;1211;43.200;27.914;2023-04-25T11:22:05;100215.78;;;23.56;78.87
2401;BME280;1211;43.200;27.914;2023-04-25T11:24:33;100209.94;;;24.10;76.30
2401;BME280;1211;43.200;27.914;2023-04-25T11:27:00;100206.19;;;24.16;74.26
2401;BME280;1211;43.200;27.914;2023-04-25T11:29:29;100207.84;;;23.51;76.32
2401;BME280;1211;43.200;27.914;2023-04-25T11:31:56;100197.53;;;23.18;78.00
2401;BME280;1211;43.200;27.914;2023-04-25T11:34:23;100199.28;;;22.54;80.94
2401;BME280;1211;43.200;27.914;2023-04-25T11:36:50;100195.22;;;21.91;82.36
2401;BME280;1211;43.200;27.914;2023-04-25T11:39:19;100200.38;;;22.60;79.37
2401;BME280;1211;43.200;27.914;2023-04-25T11:41:46;100191.56;;;22.62;79.26
2401;BME280;1211;43.200;27.914;2023-04-25T11:44:13;100186.44;;;22.53;78.11
2401;BME280;1211;43.200;27.914;2023-04-25T11:46:41;100184.63;;;22.09;80.24
2401;BME280;1211;43.200;27.914;2023-04-25T11:49:08;100186.59;;;22.12;79.63
2401;BME280;1211;43.200;27.914;2023-04-25T11:51:37;100194.13;;;22.49;79.32
2401;BME280;1211;43.200;27.914;2023-04-25T11:54:04;100178.34;;;22.89;76.75
2401;BME280;1211;43.200;27.914;2023-04-25T11:56:32;100184.00;;;23.59;74.74
2401;BME280;1211;43.200;27.914;2023-04-25T11:59:00;100176.69;;;22.92;76.15
2401;BME280;1211;43.200;27.914;2023-04-25T12:01:27;100192.44;;;23.59;67.56
2401;BME280;1211;43.200;27.914;2023-04-25T12:03:54;100186.31;;;24.27;64.17
2401;BME280;1211;43.200;27.914;2023-04-25T12:06:21;100169.47;;;24.04;64.06
2401;BME280;1211;43.200;27.914;2023-04-25T12:09:00;100168.03;;;24.35;62.86
2401;BME280;1211;43.200;27.914;2023-04-25T12:11:27;100172.16;;;23.48;63.76
2401;BME280;1211;43.200;27.914;2023-04-25T12:13:57;100166.16;;;23.46;64.70
2401;BME280;1211;43.200;27.914;2023-04-25T12:16:27;100159.09;;;24.01;63.29
2401;BME280;1211;43.200;27.914;2023-04-25T12:18:55;100160.97;;;23.88;64.26
2401;BME280;1211;43.200;27.914;2023-04-25T12:21:22;100163.13;;;24.00;64.43
2401;BME280;1211;43.200;27.914;2023-04-25T12:23:48;100171.16;;;24.21;64.00
2401;BME280;1211;43.200;27.914;2023-04-25T12:26:15;100164.06;;;24.33;63.53
2401;BME280;1211;43.200;27.914;2023-04-25T12:28:45;100169.94;;;24.22;63.92
2401;BME280;1211;43.200;27.914;2023-04-25T12:31:14;100151.47;;;23.35;65.61
2401;BME280;1211;43.200;27.914;2023-04-25T12:33:41;100154.47;;;23.01;67.33
2401;BME280;1211;43.200;27.914;2023-04-25T12:36:12;100147.38;;;23.39;67.78
2401;BME280;1211;43.200;27.914;2023-04-25T12:38:40;100152.88;;;23.00;68.28
2401;BME280;1211;43.200;27.914;2023-04-25T12:41:07;100152.63;;;22.91;68.76
2401;BME280;1211;43.200;27.914;2023-04-25T12:43:34;100143.63;;;22.76;69.70
2401;BME280;1211;43.200;27.914;2023-04-25T12:46:00;100146.75;;;21.57;77.71
2401;BME280;1211;43.200;27.914;2023-04-25T12:48:28;100146.22;;;21.28;81.99
2401;BME280;1211;43.200;27.914;2023-04-25T12:50:55;100141.28;;;21.43;81.63
2401;BME280;1211;43.200;27.914;2023-04-25T12:53:22;100144.63;;;21.30;81.52